Time;durP1;ratioP1;P1;durP2;ratioP2;P2;SDS_P1;SDS_P2;PMS_P1;PMS_P2;Temp;Humidity;BMP_temperature;BMP_pressure;BME280_temperature;BME280_humidity;BME280_pressure;Samples;Min_cycle;Max_cycle;Signal;HPM_P1;HPM_P2
2022/03/07 00:02:04;;;;;;;0.00;0.00;;;0.50;99.90;;;;;;5038719;28;20566;-65
2022/03/07 00:04:29;;;;;;;0.00;0.00;;;0.50;99.90;;;;;;5040259;28;20052;-64
2022/03/07 00:06:55;;;;;;;0.00;0.00;;;0.40;99.90;;;;;;5024783;28;20534;-65
2022/03/07 00:09:21;;;;;;;0.00;0.00;;;0.30;99.90;;;;;;5025110;28;20056;-64
2022/03/07 00:11:47;;;;;;;0.00;0.00;;;0.30;99.90;;;;;;5023475;28;20080;-64
2022/03/07 00:14:12;;;;;;;0.00;0.00;;;0.30;99.90;;;;;;5023984;28;20045;-65
2022/03/07 00:16:38;;;;;;;0.00;0.00;;;0.30;99.90;;;;;;5024854;28;20519;-66
2022/03/07 00:19:04;;;;;;;0.00;0.00;;;0.30;99.90;;;;;;5024922;28;20299;-63
2022/03/07 00:21:30;;;;;;;0.00;0.00;;;0.30;99.90;;;;;;5023737;28;20045;-65
2022/03/07 00:23:56;;;;;;;0.00;0.00;;;0.20;99.90;;;;;;5024475;28;20128;-64
2022/03/07 00:26:22;;;;;;;0.00;0.00;;;0.10;99.90;;;;;;5025093;28;20041;-64
2022/03/07 00:28:48;;;;;;;0.00;0.00;;;0.00;99.90;;;;;;5023798;28;20326;-64
2022/03/07 00:31:14;;;;;;;0.00;0.00;;;0.10;99.90;;;;;;5024250;28;20041;-65
2022/03/07 00:33:41;;;;;;;0.00;0.00;;;0.00;99.90;;;;;;5023092;28;20560;-64
2022/03/07 00:36:07;;;;;;;0.00;0.00;;;0.00;99.90;;;;;;5024600;28;20095;-65
2022/03/07 00:38:34;;;;;;;0.00;0.00;;;-0.10;99.90;;;;;;5024427;28;20121;-63
2022/03/07 00:41:00;;;;;;;0.00;0.00;;;-0.10;99.90;;;;;;5024796;28;20048;-64
2022/03/07 00:43:26;;;;;;;0.00;0.00;;;0.70;99.90;;;;;;5023709;28;20698;-65
2022/03/07 00:45:51;;;;;;;0.00;0.00;;;-0.10;99.90;;;;;;5023947;28;20038;-64
2022/03/07 00:48:17;;;;;;;0.00;0.00;;;-0.10;99.90;;;;;;5022820;28;20045;-64
2022/03/07 00:50:48;;;;;;;0.00;0.00;;;-0.10;99.90;;;;;;5023872;28;20432;-65
2022/03/07 00:53:16;;;;;;;0.00;0.00;;;-0.10;99.90;;;;;;5024516;28;20048;-65
2022/03/07 00:55:42;;;;;;;0.00;0.00;;;-0.10;99.90;;;;;;5023492;28;20107;-64
2022/03/07 00:58:08;;;;;;;0.00;0.00;;;-0.10;99.90;;;;;;5021648;28;20061;-65
2022/03/07 01:00:35;;;;;;;0.00;0.00;;;-0.20;99.90;;;;;;5024053;28;20057;-62
2022/03/07 01:03:03;;;;;;;0.00;0.00;;;-0.20;99.90;;;;;;5034867;28;20065;-65
2022/03/07 01:05:28;;;;;;;0.00;0.00;;;-0.30;99.90;;;;;;5024048;28;20099;-64
2022/03/07 01:07:54;;;;;;;0.00;0.00;;;-0.30;99.90;;;;;;5022147;28;20519;-64
2022/03/07 01:10:20;;;;;;;0.00;0.00;;;-0.40;99.90;;;;;;5024042;28;20488;-65
2022/03/07 01:12:46;;;;;;;0.00;0.00;;;-0.50;99.90;;;;;;5022478;28;20076;-64
2022/03/07 01:15:11;;;;;;;0.00;0.00;;;-0.50;99.90;;;;;;5023806;28;20765;-64
2022/03/07 01:17:37;;;;;;;0.00;0.00;;;-0.50;99.90;;;;;;5023502;28;20037;-64
2022/03/07 01:20:05;;;;;;;0.00;0.00;;;-0.60;99.90;;;;;;5023425;28;20041;-66
2022/03/07 01:22:31;;;;;;;0.00;0.00;;;-0.60;99.90;;;;;;5024331;28;20041;-66
2022/03/07 01:24:57;;;;;;;0.00;0.00;;;-0.70;99.90;;;;;;5023505;28;20503;-66
2022/03/07 01:27:23;;;;;;;0.00;0.00;;;-0.70;99.90;;;;;;5023609;28;20135;-66
2022/03/07 01:29:48;;;;;;;0.00;0.00;;;-0.40;99.90;;;;;;5022191;28;20052;-66
2022/03/07 01:32:14;;;;;;;0.00;0.00;;;-0.80;99.90;;;;;;5023420;28;20046;-66
2022/03/07 01:34:40;;;;;;;0.00;0.00;;;-0.80;99.90;;;;;;5023077;28;20052;-66
2022/03/07 01:37:06;;;;;;;0.00;0.00;;;-0.90;99.90;;;;;;5022758;28;20144;-66
2022/03/07 01:39:31;;;;;;;0.00;0.00;;;-0.80;99.90;;;;;;5023635;28;20042;-66
2022/03/07 01:41:57;;;;;;;0.00;0.00;;;-0.80;99.90;;;;;;5021845;28;20045;-66
2022/03/07 01:44:27;;;;;;;0.00;0.00;;;-0.90;99.90;;;;;;5022491;28;20953;-66
2022/03/07 01:46:53;;;;;;;0.00;0.00;;;-0.90;99.90;;;;;;5037993;28;20516;-66
2022/03/07 01:49:19;;;;;;;0.00;0.00;;;-0.90;99.90;;;;;;5022801;28;20052;-66
2022/03/07 01:51:46;;;;;;;0.00;0.00;;;-0.90;99.90;;;;;;5023012;28;20045;-65
2022/03/07 01:54:14;;;;;;;0.00;0.00;;;-1.00;99.90;;;;;;5023007;28;20048;-65
2022/03/07 01:56:45;;;;;;;0.00;0.00;;;-1.00;99.90;;;;;;5022882;28;20060;-66
2022/03/07 01:59:18;;;;;;;0.00;0.00;;;-1.00;99.90;;;;;;5022273;28;20045;-65
2022/03/07 02:01:44;;;;;;;0.00;0.00;;;-1.00;99.90;;;;;;5024552;28;20042;-66
2022/03/07 02:04:10;;;;;;;0.00;0.00;;;-1.00;99.90;;;;;;5031677;28;20119;-65
2022/03/07 02:06:36;;;;;;;0.00;0.00;;;-1.10;99.90;;;;;;5022787;28;20061;-66
2022/03/07 02:09:02;;;;;;;0.00;0.00;;;-1.20;99.90;;;;;;5022710;28;20391;-66
2022/03/07 02:11:28;;;;;;;0.00;0.00;;;-1.20;99.90;;;;;;5023105;28;20456;-66
2022/03/07 02:13:53;;;;;;;0.00;0.00;;;-1.20;99.90;;;;;;5021601;28;20484;-64
2022/03/07 02:16:20;;;;;;;0.00;0.00;;;-1.20;99.90;;;;;;5021687;28;20049;-66
2022/03/07 02:18:47;;;;;;;0.00;0.00;;;-1.20;99.90;;;;;;5021169;28;20059;-68
2022/03/07 02:21:17;;;;;;;0.00;0.00;;;-1.20;99.90;;;;;;5022730;28;20045;-67
2022/03/07 02:23:45;;;;;;;0.00;0.00;;;-1.30;99.90;;;;;;5022298;28;20053;-66
2022/03/07 02:26:13;;;;;;;0.00;0.00;;;-1.30;99.90;;;;;;5022579;28;20049;-66
2022/03/07 02:28:40;;;;;;;0.00;0.00;;;-1.30;99.90;;;;;;5021813;28;20073;-66
2022/03/07 02:31:06;;;;;;;0.00;0.00;;;-1.30;99.90;;;;;;5022697;28;20125;-66
2022/03/07 02:33:35;;;;;;;0.00;0.00;;;-1.30;99.90;;;;;;5022823;28;20556;-66
2022/03/07 02:36:02;;;;;;;0.00;0.00;;;-1.30;99.90;;;;;;5022990;28;20396;-66
2022/03/07 02:38:27;;;;;;;0.00;0.00;;;-1.30;99.90;;;;;;5021077;28;20057;-66
2022/03/07 02:40:53;;;;;;;0.00;0.00;;;-1.30;99.90;;;;;;5021522;28;20045;-66
2022/03/07 02:43:19;;;;;;;0.10;0.10;;;-1.30;99.90;;;;;;5022296;28;20098;-66
2022/03/07 02:45:45;;;;;;;0.00;0.00;;;-1.40;99.90;;;;;;5021030;28;20073;-65
2022/03/07 02:48:11;;;;;;;0.00;0.00;;;-1.40;99.90;;;;;;5022514;28;20477;-65
2022/03/07 02:50:37;;;;;;;0.00;0.00;;;-1.40;99.90;;;;;;5022554;28;20045;-66
2022/03/07 02:53:03;;;;;;;0.00;0.00;;;-1.40;99.90;;;;;;5022656;28;20060;-66
2022/03/07 02:55:31;;;;;;;0.00;0.00;;;-1.50;99.90;;;;;;5022166;28;20041;-65
2022/03/07 02:57:56;;;;;;;0.00;0.00;;;-1.50;99.90;;;;;;5020785;28;20099;-66
2022/03/07 03:00:23;;;;;;;0.00;0.00;;;-1.50;99.90;;;;;;5022397;28;20121;-66
2022/03/07 03:02:48;;;;;;;0.00;0.00;;;-1.50;99.90;;;;;;5032399;28;20076;-65
2022/03/07 03:05:14;;;;;;;0.10;0.10;;;-1.50;99.90;;;;;;5022779;28;20828;-66
2022/03/07 03:07:40;;;;;;;0.00;0.00;;;-1.50;99.90;;;;;;5020603;28;20511;-66
2022/03/07 03:10:07;;;;;;;0.00;0.00;;;-1.50;99.90;;;;;;5022082;28;20041;-66
2022/03/07 03:12:33;;;;;;;0.00;0.00;;;-1.60;99.90;;;;;;5022033;28;20052;-66
2022/03/07 03:14:59;;;;;;;0.00;0.00;;;-1.60;99.90;;;;;;5021492;28;20050;-65
2022/03/07 03:17:26;;;;;;;0.00;0.00;;;-1.60;99.90;;;;;;5022310;28;20100;-66
2022/03/07 03:19:52;;;;;;;0.00;0.00;;;-1.10;99.90;;;;;;5021746;28;20496;-65
2022/03/07 03:22:19;;;;;;;0.00;0.00;;;-1.60;99.90;;;;;;5021909;28;20038;-66
2022/03/07 03:24:46;;;;;;;0.00;0.00;;;-1.70;99.90;;;;;;5021832;28;20059;-65
2022/03/07 03:27:11;;;;;;;0.00;0.00;;;-1.80;99.90;;;;;;5022029;28;20128;-64
2022/03/07 03:29:37;;;;;;;0.00;0.00;;;-1.70;99.90;;;;;;5024882;28;20049;-66
2022/03/07 03:32:03;;;;;;;0.00;0.00;;;-1.70;99.90;;;;;;5025711;28;20121;-66
2022/03/07 03:34:29;;;;;;;0.00;0.00;;;-1.70;99.90;;;;;;5025796;28;20494;-66
2022/03/07 03:36:54;;;;;;;0.00;0.00;;;-1.70;99.90;;;;;;5025141;28;20128;-65
2022/03/07 03:39:20;;;;;;;0.00;0.00;;;-1.50;99.90;;;;;;5024945;28;20045;-65
2022/03/07 03:41:46;;;;;;;0.00;0.00;;;-1.70;99.90;;;;;;5025530;28;20448;-65
2022/03/07 03:44:11;;;;;;;0.00;0.00;;;-1.70;99.90;;;;;;5024988;28;20080;-66
2022/03/07 03:46:37;;;;;;;0.00;0.00;;;-1.80;99.90;;;;;;5025200;28;20551;-66
2022/03/07 03:49:03;;;;;;;0.00;0.00;;;-1.90;99.90;;;;;;5025153;28;20069;-65
2022/03/07 03:51:29;;;;;;;0.00;0.00;;;-1.80;99.90;;;;;;5025374;28;20088;-66
2022/03/07 03:53:55;;;;;;;0.00;0.00;;;-1.90;99.90;;;;;;5024686;28;20087;-65
2022/03/07 03:56:21;;;;;;;0.00;0.00;;;-1.70;99.90;;;;;;5023367;28;20045;-66
2022/03/07 03:58:46;;;;;;;0.00;0.00;;;-1.70;99.90;;;;;;5024528;28;20078;-64
2022/03/07 04:01:12;;;;;;;0.00;0.00;;;-1.80;99.90;;;;;;5026931;28;20474;-65
2022/03/07 04:03:38;;;;;;;0.00;0.00;;;-1.80;99.90;;;;;;5040606;28;20224;-66
2022/03/07 04:06:06;;;;;;;0.00;0.00;;;-1.60;99.90;;;;;;5045102;28;20118;-66
2022/03/07 04:08:58;;;;;;;0.00;0.00;;;-1.90;99.90;;;;;;5045463;28;20486;-64
2022/03/07 04:11:23;;;;;;;0.00;0.00;;;-1.80;99.90;;;;;;5041676;28;20057;-66
2022/03/07 04:13:49;;;;;;;0.00;0.00;;;-1.80;99.90;;;;;;5043871;28;20051;-65
2022/03/07 04:16:15;;;;;;;0.00;0.00;;;-1.80;99.90;;;;;;5044822;28;20502;-65
2022/03/07 04:18:41;;;;;;;0.00;0.00;;;-1.50;99.90;;;;;;5044042;28;20049;-62
2022/03/07 04:21:07;;;;;;;0.00;0.00;;;-1.80;99.90;;;;;;5043587;28;20087;-65
2022/03/07 04:23:33;;;;;;;0.00;0.00;;;-1.70;99.90;;;;;;5045087;28;20041;-66
2022/03/07 04:25:58;;;;;;;0.00;0.00;;;-1.70;99.90;;;;;;5044459;28;20040;-65
2022/03/07 04:28:24;;;;;;;0.00;0.00;;;-1.70;99.90;;;;;;5043442;28;20163;-65
2022/03/07 04:30:50;;;;;;;0.00;0.00;;;-1.80;99.90;;;;;;5044142;28;20040;-64
2022/03/07 04:33:15;;;;;;;0.00;0.00;;;-1.80;99.90;;;;;;5044187;28;20045;-64
2022/03/07 04:35:41;;;;;;;0.00;0.00;;;-1.80;99.90;;;;;;5043827;28;20483;-65
2022/03/07 04:38:07;;;;;;;0.00;0.00;;;-1.80;99.90;;;;;;5044338;28;20037;-65
2022/03/07 04:40:33;;;;;;;0.00;0.00;;;-1.80;99.90;;;;;;5043936;28;20045;-64
2022/03/07 04:42:58;;;;;;;0.00;0.00;;;-1.80;99.90;;;;;;5043233;28;20052;-64
2022/03/07 04:45:24;;;;;;;0.00;0.00;;;-1.80;99.90;;;;;;5044039;28;20305;-65
2022/03/07 04:47:50;;;;;;;0.00;0.00;;;-1.80;99.90;;;;;;5043550;28;20053;-64
2022/03/07 04:50:16;;;;;;;0.00;0.00;;;-1.70;99.90;;;;;;5044275;28;20045;-64
2022/03/07 04:52:42;;;;;;;0.00;0.00;;;-1.70;99.90;;;;;;5043533;28;20063;-62
2022/03/07 04:55:11;;;;;;;0.00;0.00;;;-1.70;99.90;;;;;;5044443;28;20057;-65
2022/03/07 04:57:36;;;;;;;0.00;0.00;;;-0.20;99.90;;;;;;5043118;28;20060;-64
2022/03/07 05:00:05;;;;;;;0.00;0.00;;;-1.70;99.90;;;;;;5043905;28;20037;-65
2022/03/07 05:02:31;;;;;;;0.00;0.00;;;-1.70;99.90;;;;;;5037345;28;20075;-65
2022/03/07 05:04:56;;;;;;;0.00;0.00;;;-2.20;99.90;;;;;;5027031;28;20408;-63
2022/03/07 05:07:22;;;;;;;0.00;0.00;;;-1.90;99.90;;;;;;5023999;28;20049;-65
2022/03/07 05:09:48;;;;;;;0.00;0.00;;;-1.40;99.90;;;;;;5023185;28;20046;-65
2022/03/07 05:12:13;;;;;;;0.00;0.00;;;-2.00;99.90;;;;;;5023229;28;20084;-65
2022/03/07 05:14:39;;;;;;;0.00;0.00;;;-2.00;99.90;;;;;;5023584;28;20120;-64
2022/03/07 05:17:05;;;;;;;0.00;0.00;;;-2.00;99.90;;;;;;5023450;28;20045;-64
2022/03/07 05:19:30;;;;;;;0.00;0.00;;;-2.10;99.90;;;;;;5022268;28;20136;-64
2022/03/07 05:21:56;;;;;;;0.00;0.00;;;-2.10;99.90;;;;;;5023629;28;20076;-64
2022/03/07 05:24:22;;;;;;;0.00;0.00;;;-2.10;99.90;;;;;;5023677;28;20045;-65
2022/03/07 05:26:47;;;;;;;0.38;0.25;;;-2.10;99.90;;;;;;5022471;28;20065;-64
2022/03/07 05:29:14;;;;;;;0.00;0.00;;;-2.10;99.90;;;;;;5022691;28;20041;-64
2022/03/07 05:31:39;;;;;;;0.00;0.00;;;-3.30;99.90;;;;;;5022184;28;20652;-64
2022/03/07 05:34:05;;;;;;;0.20;0.20;;;-2.20;99.90;;;;;;5023404;28;20042;-65
2022/03/07 05:36:30;;;;;;;0.00;0.00;;;-2.10;99.90;;;;;;5023477;28;20048;-65
2022/03/07 05:38:56;;;;;;;0.00;0.00;;;-2.20;99.90;;;;;;5023037;28;20504;-64
2022/03/07 05:41:22;;;;;;;0.00;0.00;;;-2.20;99.90;;;;;;5023775;28;20081;-64
2022/03/07 05:43:47;;;;;;;0.00;0.00;;;-2.20;99.90;;;;;;5021667;28;20132;-65
2022/03/07 05:46:13;;;;;;;0.00;0.00;;;-2.20;99.90;;;;;;5023480;28;20429;-66
2022/03/07 05:48:39;;;;;;;0.00;0.00;;;-2.20;99.90;;;;;;5023321;28;20045;-64
2022/03/07 05:51:04;;;;;;;0.00;0.00;;;-2.10;99.90;;;;;;5022658;28;20045;-65
2022/03/07 05:53:30;;;;;;;0.00;0.00;;;-2.20;99.90;;;;;;5021561;28;20128;-65
2022/03/07 05:55:56;;;;;;;0.00;0.00;;;-2.10;99.90;;;;;;5022723;28;20112;-64
2022/03/07 05:58:21;;;;;;;0.00;0.00;;;-2.20;99.90;;;;;;5022665;28;20045;-65
2022/03/07 06:00:47;;;;;;;0.00;0.00;;;-2.20;99.90;;;;;;5022007;28;20140;-65
2022/03/07 06:03:12;;;;;;;0.00;0.00;;;-2.20;99.90;;;;;;5029488;28;20443;-64
2022/03/07 06:05:38;;;;;;;0.00;0.00;;;-2.30;99.90;;;;;;5041225;28;20033;-60
2022/03/07 06:08:05;;;;;;;0.00;0.00;;;-2.30;99.90;;;;;;5041613;28;20041;-64
2022/03/07 06:10:31;;;;;;;0.00;0.00;;;-2.30;99.90;;;;;;5042611;28;20135;-66
2022/03/07 06:12:57;;;;;;;0.00;0.00;;;-2.30;99.90;;;;;;5040500;28;20116;-64
2022/03/07 06:15:23;;;;;;;0.00;0.00;;;-2.30;99.90;;;;;;5043076;28;20303;-65
2022/03/07 06:17:54;;;;;;;0.00;0.00;;;-2.30;99.90;;;;;;5041744;28;20127;-65
2022/03/07 06:20:20;;;;;;;0.00;0.00;;;-2.20;99.90;;;;;;5042912;28;20127;-65
2022/03/07 06:22:46;;;;;;;0.00;0.00;;;-2.30;99.90;;;;;;5042108;28;20029;-64
2022/03/07 06:25:12;;;;;;;0.00;0.00;;;-2.30;99.90;;;;;;5040968;28;20049;-64
2022/03/07 06:27:38;;;;;;;0.00;0.00;;;-2.40;99.90;;;;;;5041715;28;20048;-65
2022/03/07 06:30:04;;;;;;;0.00;0.00;;;-2.20;99.90;;;;;;5041281;28;20052;-64
2022/03/07 06:32:30;;;;;;;0.00;0.00;;;-2.10;99.90;;;;;;5041182;28;20098;-65
2022/03/07 06:34:55;;;;;;;0.00;0.00;;;-2.20;99.90;;;;;;5041793;28;20033;-65
2022/03/07 06:37:21;;;;;;;0.00;0.00;;;-1.60;99.90;;;;;;5042592;28;20056;-63
2022/03/07 06:39:47;;;;;;;0.00;0.00;;;-1.80;99.90;;;;;;5042098;28;20071;-64
2022/03/07 06:42:13;;;;;;;0.00;0.00;;;-1.90;99.90;;;;;;5041074;28;20119;-65
2022/03/07 06:44:39;;;;;;;0.10;0.10;;;-1.80;99.90;;;;;;5042359;28;20044;-60
2022/03/07 06:47:08;;;;;;;0.00;0.00;;;-1.80;99.90;;;;;;5042709;28;20052;-63
2022/03/07 06:49:34;;;;;;;0.00;0.00;;;-1.70;99.90;;;;;;5042868;28;20048;-64
2022/03/07 06:52:00;;;;;;;0.00;0.00;;;-1.70;99.90;;;;;;5040452;28;20051;-64
2022/03/07 06:54:26;;;;;;;0.00;0.00;;;-1.70;99.90;;;;;;5040811;28;20045;-63
2022/03/07 06:56:51;;;;;;;0.00;0.00;;;-1.70;99.90;;;;;;5041030;28;20040;-63
2022/03/07 06:59:17;;;;;;;0.00;0.00;;;-1.70;99.90;;;;;;5040394;28;20072;-66
2022/03/07 07:01:43;;;;;;;0.00;0.00;;;-1.60;99.90;;;;;;5036242;28;20453;-63
2022/03/07 07:04:08;;;;;;;0.00;0.00;;;-1.60;99.90;;;;;;5034065;28;20053;-64
2022/03/07 07:06:34;;;;;;;0.00;0.00;;;-1.60;99.90;;;;;;5026609;28;20496;-64
2022/03/07 07:09:00;;;;;;;0.00;0.00;;;-1.60;99.90;;;;;;5024705;28;20053;-64
2022/03/07 07:11:25;;;;;;;0.00;0.00;;;-1.50;99.90;;;;;;5025925;28;20041;-66
2022/03/07 07:13:51;;;;;;;0.00;0.00;;;-1.40;99.90;;;;;;5025045;28;20057;-66
2022/03/07 07:16:17;;;;;;;0.00;0.00;;;-1.40;99.90;;;;;;5025885;28;20902;-66
2022/03/07 07:18:43;;;;;;;0.00;0.00;;;-1.40;99.90;;;;;;5025371;28;20285;-66
2022/03/07 07:21:08;;;;;;;0.00;0.00;;;-1.30;99.90;;;;;;5025796;28;20045;-66
2022/03/07 07:23:35;;;;;;;0.00;0.00;;;-1.20;99.90;;;;;;5026310;28;20504;-66
2022/03/07 07:26:01;;;;;;;0.00;0.00;;;-1.10;99.90;;;;;;5024308;28;20045;-66
2022/03/07 07:28:26;;;;;;;0.00;0.00;;;-1.00;99.90;;;;;;5024972;28;20587;-66
2022/03/07 07:30:52;;;;;;;0.10;0.10;;;-0.90;99.90;;;;;;5025197;28;20092;-66
2022/03/07 07:33:18;;;;;;;0.10;0.10;;;-0.70;99.90;;;;;;5024345;28;20045;-64
2022/03/07 07:35:43;;;;;;;0.00;0.00;;;-0.70;99.90;;;;;;5025202;28;20045;-66
2022/03/07 07:38:09;;;;;;;0.00;0.00;;;-0.60;99.90;;;;;;5025313;28;20045;-66
2022/03/07 07:40:35;;;;;;;0.00;0.00;;;-0.50;99.90;;;;;;5025402;28;20388;-64
2022/03/07 07:43:01;;;;;;;0.00;0.00;;;-0.40;99.90;;;;;;5024728;28;20040;-67
2022/03/07 07:45:27;;;;;;;0.00;0.00;;;-0.30;99.90;;;;;;5024425;28;20123;-66
2022/03/07 07:47:52;;;;;;;0.00;0.00;;;-0.10;99.90;;;;;;5024949;28;20099;-64
2022/03/07 07:50:19;;;;;;;0.00;0.00;;;0.00;99.90;;;;;;5025044;28;20045;-64
2022/03/07 07:52:45;;;;;;;0.00;0.00;;;0.10;99.90;;;;;;5025013;28;20041;-65
2022/03/07 07:55:11;;;;;;;0.00;0.00;;;0.40;99.90;;;;;;5024157;28;20377;-63
2022/03/07 07:57:39;;;;;;;0.00;0.00;;;0.50;99.90;;;;;;5024204;28;20049;-65
2022/03/07 08:00:06;;;;;;;0.00;0.00;;;0.60;99.90;;;;;;5024420;28;20504;-64
2022/03/07 08:02:32;;;;;;;0.00;0.00;;;0.80;99.90;;;;;;5033754;28;20140;-64
2022/03/07 08:04:57;;;;;;;0.00;0.00;;;0.90;99.90;;;;;;5027733;28;20144;-64
2022/03/07 08:07:23;;;;;;;0.00;0.00;;;1.10;99.90;;;;;;5024813;28;20100;-65
2022/03/07 08:09:49;;;;;;;0.00;0.00;;;1.20;99.90;;;;;;5024413;28;20045;-64
2022/03/07 08:12:17;;;;;;;0.00;0.00;;;1.30;99.90;;;;;;5024305;28;20033;-65
2022/03/07 08:14:43;;;;;;;0.00;0.00;;;1.40;99.90;;;;;;5023562;28;20076;-64
2022/03/07 08:17:09;;;;;;;0.00;0.00;;;1.60;99.90;;;;;;5024848;28;20064;-65
2022/03/07 08:19:35;;;;;;;0.00;0.00;;;1.80;99.90;;;;;;5023041;28;20041;-62
2022/03/07 08:22:00;;;;;;;0.00;0.00;;;1.80;99.90;;;;;;5025038;28;20045;-64
2022/03/07 08:24:26;;;;;;;0.00;0.00;;;1.80;99.90;;;;;;5023267;28;20721;-64
2022/03/07 08:26:52;;;;;;;0.00;0.00;;;2.00;99.90;;;;;;5023433;28;20038;-64
2022/03/07 08:29:17;;;;;;;0.00;0.00;;;2.10;99.90;;;;;;5024824;28;20056;-64
2022/03/07 08:31:43;;;;;;;0.00;0.00;;;2.60;99.90;;;;;;5024381;28;20045;-64
2022/03/07 08:34:08;;;;;;;0.00;0.00;;;2.30;99.90;;;;;;5024275;28;20077;-64
2022/03/07 08:36:34;;;;;;;0.00;0.00;;;2.40;99.90;;;;;;5024709;28;20041;-64
2022/03/07 08:39:00;;;;;;;0.00;0.00;;;2.50;99.90;;;;;;5024701;28;20048;-62
2022/03/07 08:41:26;;;;;;;0.00;0.00;;;2.60;99.90;;;;;;5022273;28;20405;-64
2022/03/07 08:43:52;;;;;;;0.00;0.00;;;2.70;99.90;;;;;;5023973;28;20048;-64
2022/03/07 08:46:19;;;;;;;0.00;0.00;;;2.90;99.90;;;;;;5024340;28;20051;-64
2022/03/07 08:48:44;;;;;;;0.00;0.00;;;2.90;99.90;;;;;;5024208;28;20694;-64
2022/03/07 08:51:10;;;;;;;0.00;0.00;;;3.00;99.90;;;;;;5023998;28;20124;-64
2022/03/07 08:53:36;;;;;;;0.00;0.00;;;3.20;99.90;;;;;;5024017;28;20124;-64
2022/03/07 08:56:02;;;;;;;0.00;0.00;;;3.30;99.90;;;;;;5024152;28;20056;-64
2022/03/07 08:58:27;;;;;;;0.00;0.00;;;3.40;99.90;;;;;;5023147;28;20042;-64
2022/03/07 09:00:53;;;;;;;0.00;0.00;;;3.50;99.90;;;;;;5024139;28;20451;-64
2022/03/07 09:03:19;;;;;;;0.00;0.00;;;3.70;99.90;;;;;;5034608;28;20621;-66
2022/03/07 09:05:44;;;;;;;0.00;0.00;;;4.00;99.90;;;;;;5023914;28;20499;-64
2022/03/07 09:08:10;;;;;;;0.00;0.00;;;3.90;99.90;;;;;;5022189;28;20104;-66
2022/03/07 09:10:35;;;;;;;0.00;0.00;;;4.10;99.90;;;;;;5023273;28;20409;-63
2022/03/07 09:13:01;;;;;;;0.00;0.00;;;4.20;99.90;;;;;;5023612;28;20076;-66
2022/03/07 09:15:27;;;;;;;0.00;0.00;;;4.30;99.90;;;;;;5023804;28;20072;-64
2022/03/07 09:17:53;;;;;;;0.00;0.00;;;4.30;99.90;;;;;;5023268;28;20040;-65
2022/03/07 09:20:19;;;;;;;0.00;0.00;;;4.60;99.90;;;;;;5022536;28;20111;-64
2022/03/07 09:22:45;;;;;;;0.00;0.00;;;4.80;99.90;;;;;;5023225;28;20046;-64
2022/03/07 09:25:11;;;;;;;0.00;0.00;;;5.50;99.90;;;;;;5023099;28;20049;-65
2022/03/07 09:27:36;;;;;;;0.00;0.00;;;6.50;99.90;;;;;;5022545;28;20106;-64
2022/03/07 09:30:06;;;;;;;0.00;0.00;;;7.60;99.90;;;;;;5023747;28;20496;-65
2022/03/07 09:32:32;;;;;;;0.00;0.00;;;8.50;99.90;;;;;;5022127;28;20107;-65
2022/03/07 09:34:58;;;;;;;0.00;0.00;;;9.30;99.90;;;;;;5023087;28;20049;-64
2022/03/07 09:37:24;;;;;;;0.00;0.00;;;10.30;99.90;;;;;;5023340;28;20037;-63
2022/03/07 09:39:50;;;;;;;0.00;0.00;;;10.20;99.90;;;;;;5022463;28;20041;-64
2022/03/07 09:42:16;;;;;;;0.00;0.00;;;10.80;99.90;;;;;;5022658;28;20049;-64
2022/03/07 09:44:41;;;;;;;0.00;0.00;;;11.20;99.90;;;;;;5023127;28;20087;-61
2022/03/07 09:47:07;;;;;;;0.00;0.00;;;11.30;99.90;;;;;;5023250;28;20041;-65
2022/03/07 09:49:33;;;;;;;0.00;0.00;;;11.60;99.90;;;;;;5021626;28;20053;-63
2022/03/07 09:52:00;;;;;;;0.00;0.00;;;12.10;99.90;;;;;;5021395;28;20049;-63
2022/03/07 09:54:25;;;;;;;0.00;0.00;;;12.50;99.90;;;;;;5022212;28;20175;-63
2022/03/07 09:56:52;;;;;;;0.00;0.00;;;12.70;99.90;;;;;;5021861;28;20129;-64
2022/03/07 09:59:20;;;;;;;0.00;0.00;;;13.00;99.90;;;;;;5022785;28;20211;-63
2022/03/07 10:01:59;;;;;;;0.00;0.00;;;13.20;99.90;;;;;;5024740;28;20053;-62
2022/03/07 10:04:25;;;;;;;0.00;0.00;;;13.20;99.90;;;;;;5022480;28;20050;-64
2022/03/07 10:06:51;;;;;;;0.00;0.00;;;13.00;99.90;;;;;;5022393;28;20055;-65
2022/03/07 10:09:22;;;;;;;0.00;0.00;;;13.20;99.90;;;;;;5022746;28;20056;-65
2022/03/07 10:11:53;;;;;;;0.00;0.00;;;13.40;99.90;;;;;;5021460;28;20053;-65
2022/03/07 10:14:30;;;;;;;0.00;0.00;;;13.60;99.90;;;;;;5023095;28;20045;-65
2022/03/07 10:16:56;;;;;;;0.00;0.00;;;13.20;99.90;;;;;;5022042;28;20044;-65
2022/03/07 10:19:22;;;;;;;0.00;0.00;;;13.10;99.90;;;;;;5022141;28;20037;-65
2022/03/07 10:21:50;;;;;;;0.00;0.00;;;14.10;99.90;;;;;;5022619;28;20112;-65
2022/03/07 10:24:17;;;;;;;0.00;0.00;;;13.30;99.90;;;;;;5022822;28;20382;-66
2022/03/07 10:26:43;;;;;;;0.00;0.00;;;13.60;99.90;;;;;;5021078;28;20039;-66
2022/03/07 10:29:09;;;;;;;0.00;0.00;;;13.60;99.90;;;;;;5022869;28;20044;-65
2022/03/07 10:31:37;;;;;;;0.00;0.00;;;13.40;99.90;;;;;;5022304;28;20374;-65
2022/03/07 10:34:10;;;;;;;0.00;0.00;;;12.50;99.90;;;;;;5022856;28;20033;-65
2022/03/07 10:36:41;;;;;;;0.00;0.00;;;12.50;99.90;;;;;;5022326;28;20049;-65
2022/03/07 10:39:10;;;;;;;0.00;0.00;;;12.60;99.90;;;;;;5025336;28;20057;-64
2022/03/07 10:41:41;;;;;;;0.00;0.00;;;12.90;99.90;;;;;;5025330;28;20503;-65
2022/03/07 10:44:10;;;;;;;0.00;0.00;;;12.60;99.90;;;;;;5026369;28;20042;-65
2022/03/07 10:46:36;;;;;;;0.00;0.00;;;12.60;99.90;;;;;;5026484;28;20481;-65
2022/03/07 10:49:06;;;;;;;0.00;0.00;;;12.20;99.90;;;;;;5024987;28;20052;-65
2022/03/07 10:51:32;;;;;;;0.00;0.00;;;11.90;99.90;;;;;;5027034;28;20048;-63
2022/03/07 10:54:09;;;;;;;0.00;0.00;;;12.40;99.90;;;;;;5026026;28;20041;-66
2022/03/07 10:56:35;;;;;;;0.08;0.08;;;12.50;99.90;;;;;;5023733;28;20059;-61
2022/03/07 10:59:01;;;;;;;0.00;0.00;;;12.00;99.90;;;;;;5026269;28;20059;-62
2022/03/07 11:01:31;;;;;;;0.00;0.00;;;12.10;99.90;;;;;;5028589;28;20041;-63
2022/03/07 11:03:58;;;;;;;0.00;0.00;;;11.70;99.90;;;;;;5034809;28;20116;-62
2022/03/07 11:06:28;;;;;;;0.00;0.00;;;12.00;99.90;;;;;;5026188;28;20060;-62
2022/03/07 11:08:55;;;;;;;0.00;0.00;;;11.90;99.90;;;;;;5025736;28;20471;-62
2022/03/07 11:11:21;;;;;;;0.00;0.00;;;12.10;99.90;;;;;;5024533;28;20099;-63
2022/03/07 11:13:52;;;;;;;0.00;0.00;;;11.70;99.90;;;;;;5025677;28;20041;-62
2022/03/07 11:16:20;;;;;;;0.00;0.00;;;11.30;99.90;;;;;;5025920;28;20049;-63
2022/03/07 11:18:51;;;;;;;0.00;0.00;;;10.60;99.90;;;;;;5023867;28;20068;-63
2022/03/07 11:21:17;;;;;;;0.10;0.10;;;9.50;99.90;;;;;;5025869;28;20056;-63
2022/03/07 11:23:43;;;;;;;0.00;0.00;;;10.40;99.90;;;;;;5025434;28;20531;-62
2022/03/07 11:26:09;;;;;;;0.00;0.00;;;10.30;99.90;;;;;;5025511;28;20041;-63
2022/03/07 11:28:35;;;;;;;0.00;0.00;;;11.40;99.90;;;;;;5025564;28;20121;-62
2022/03/07 11:31:01;;;;;;;0.00;0.00;;;11.10;99.90;;;;;;5025796;28;20508;-63
2022/03/07 11:33:33;;;;;;;0.00;0.00;;;11.60;99.90;;;;;;5026027;28;20052;-64
2022/03/07 11:36:02;;;;;;;0.00;0.00;;;11.80;99.90;;;;;;5024657;28;20045;-62
2022/03/07 11:38:31;;;;;;;0.00;0.00;;;11.90;99.90;;;;;;5025432;28;20408;-64
2022/03/07 11:41:02;;;;;;;0.00;0.00;;;11.70;99.90;;;;;;5024349;28;20085;-63
2022/03/07 11:43:31;;;;;;;0.00;0.00;;;11.20;99.90;;;;;;5025194;28;20072;-62
2022/03/07 11:45:58;;;;;;;0.00;0.00;;;10.70;99.90;;;;;;5025229;28;20037;-63
2022/03/07 11:48:25;;;;;;;0.00;0.00;;;10.40;99.90;;;;;;5025267;28;20251;-63
2022/03/07 11:50:51;;;;;;;0.00;0.00;;;10.40;99.90;;;;;;5024508;28;20042;-63
2022/03/07 11:53:19;;;;;;;0.00;0.00;;;10.80;99.90;;;;;;5025528;28;20045;-63
2022/03/07 11:55:50;;;;;;;0.00;0.00;;;11.00;99.90;;;;;;5024784;28;20049;-63
2022/03/07 11:58:36;;;;;;;0.00;0.00;;;11.20;99.90;;;;;;5024622;28;20053;-63
2022/03/07 12:01:11;;;;;;;0.00;0.00;;;11.30;99.90;;;;;;5026054;28;20103;-62
2022/03/07 12:03:37;;;;;;;0.00;0.00;;;11.10;99.90;;;;;;5015627;28;20052;-62
2022/03/07 12:06:10;;;;;;;0.00;0.00;;;11.70;99.90;;;;;;5025661;28;20041;-63
2022/03/07 12:08:48;;;;;;;0.00;0.00;;;11.30;99.90;;;;;;5023634;28;20100;-62
2022/03/07 12:11:31;;;;;;;0.00;0.00;;;11.40;99.90;;;;;;5023289;28;20041;-66
2022/03/07 12:14:04;;;;;;;0.00;0.00;;;11.30;99.90;;;;;;5024322;28;20057;-62
2022/03/07 12:16:31;;;;;;;0.00;0.00;;;11.30;99.90;;;;;;5025336;28;20041;-63
2022/03/07 12:19:06;;;;;;;0.00;0.00;;;11.30;99.90;;;;;;5024700;28;20050;-62
2022/03/07 12:21:32;;;;;;;0.00;0.00;;;11.50;99.90;;;;;;5025014;28;20045;-63
2022/03/07 12:23:59;;;;;;;0.00;0.00;;;11.60;99.90;;;;;;5024592;28;20088;-62
2022/03/07 12:26:25;;;;;;;0.00;0.00;;;11.40;99.90;;;;;;5024180;28;20041;-62
2022/03/07 12:28:50;;;;;;;0.00;0.00;;;11.50;99.90;;;;;;5024431;28;20095;-63
2022/03/07 12:31:16;;;;;;;0.00;0.00;;;11.50;99.90;;;;;;5023947;28;20045;-63
2022/03/07 12:33:46;;;;;;;0.00;0.00;;;11.80;99.90;;;;;;5024143;28;20072;-62
2022/03/07 12:36:14;;;;;;;0.00;0.00;;;12.10;99.90;;;;;;5024422;28;20095;-62
2022/03/07 12:38:45;;;;;;;0.00;0.00;;;12.00;99.90;;;;;;5023878;28;20085;-62
2022/03/07 12:41:12;;;;;;;0.00;0.00;;;11.90;99.90;;;;;;5024232;28;20033;-63
2022/03/07 12:43:38;;;;;;;0.00;0.00;;;11.80;99.90;;;;;;5023181;28;20053;-62
2022/03/07 12:46:04;;;;;;;0.00;0.00;;;11.60;99.90;;;;;;5024414;28;20077;-62